Glenville, NC

6:24 PM EST on November 27, 2014 (GMT -0500)
Asheville Regional | Change Station
CLOSE
Current Station
Airport
Location: Asheville,
Elevation: 2169 ft
Nearby Weather Stations

Elev 2169 ft 35.43 °N, 82.54 °W | Updated 30 minutes ago

Overcast
Overcast
34 °F
Feels Like 26 °F
N
10
Wind Variable Wind from North
Gusts 21 mph

Today
High -- | Low -- °F
--% Chance of Precip.
Yesterday
High -- | Low -- °F
Precip. -- in
7:18 AM 5:21 PM
Waxing Crescent, 34% visible
Pressure 30.25 in
Visibility 10.0 miles
Clouds Mostly Cloudy 3600 ft
Overcast 4500 ft
Windchill 26 °F
Dew Point 25 °F
Humidity 70%
Rainfall 0.00 in
Snow Depth Not available.
UV 0 out of 12
Pollen .10 out of 12
Air Quality Not available.
Flu Activity Not available.
METAR KAVL 272254Z 35009G18KT 10SM BKN036 OVC045 01/M04 A3022 RMK AO2 SLP241 T00111039

More Conditions Fewer Conditions

Pressure 30.25 in
Visibility 10.0 miles
Clouds Mostly Cloudy 3600 ft
Overcast 4500 ft
Windchill 26 °F
Dew Point 25 °F
Humidity 70%
Rainfall 0.00 in
Snow Depth Not available.
UV 0 out of 12
Pollen .10 out of 12
Air Quality Not available.
Flu Activity Not available.
METAR KAVL 272254Z 35009G18KT 10SM BKN036 OVC045 01/M04 A3022 RMK AO2 SLP241 T00111039

More Conditions Fewer Conditions

10-Day Weather Forecast

Almanac

Astronomy

Nov. 27, 2014 Rise Set
Actual Time
Civil Twilight
Nautical Twilight
Astronomical Twilight
Moon
Length of Visible Light
Length of Day
Tomorrow will be .
, % of the Moon is Illuminated

Today's Extremes

State Highs State Lows

Community

WunderPhotos

Upload Photos

1,774,135 photos uploaded!

WunderBlogs® & News

Nearby

Air Quality

  Air Quality AQ Index Pollutant
Not available.

Snow Depth

Station Depth Elevation

Earthquake Activity

City Distance Mag. Time & Date
Minimum magnitude displayed is 2.5.

Coastal Water Temperatures

Place Temperature

Nearby Weather Stations